Time;durP1;ratioP1;P1;durP2;ratioP2;P2;SDS_P1;SDS_P2;PMS_P1;PMS_P2;Temp;Humidity;BMP_temperature;BMP_pressure;BME280_temperature;BME280_humidity;BME280_pressure;Samples;Min_cycle;Max_cycle;Signal;HPM_P1;HPM_P2
2022/09/13 00:01:15;;;;;;;3.85;2.55;;;;;;;16.28;89.02;100690.81;4980830;28;20174;-44
2022/09/13 00:03:41;;;;;;;3.03;2.70;;;;;;;16.25;89.98;100696.44;4979595;28;20190;-45
2022/09/13 00:06:09;;;;;;;3.80;3.20;;;;;;;16.19;90.62;100696.81;4981176;28;20186;-44
2022/09/13 00:08:34;;;;;;;3.83;3.00;;;;;;;16.05;91.22;100684.19;4977838;28;20245;-45
2022/09/13 00:11:00;;;;;;;3.47;3.05;;;;;;;15.89;92.56;100684.28;4981841;28;20634;-44
2022/09/13 00:13:26;;;;;;;5.10;3.45;;;;;;;15.88;93.81;100674.44;4943901;28;20190;-45
2022/09/13 00:15:51;;;;;;;3.60;3.30;;;;;;;15.70;95.28;100656.63;4983210;28;20189;-44
2022/09/13 00:18:17;;;;;;;7.05;3.78;;;;;;;15.64;96.42;100631.75;4979214;28;20320;-44
2022/09/13 00:20:43;;;;;;;4.05;3.65;;;;;;;15.55;97.81;100624.25;4983636;28;20185;-45
2022/09/13 00:23:09;;;;;;;4.80;3.90;;;;;;;15.34;99.09;100607.53;4980882;28;20621;-46
2022/09/13 00:25:35;;;;;;;5.07;3.78;;;;;;;15.27;100.00;100598.09;4984544;28;20177;-46
2022/09/13 00:28:01;;;;;;;4.28;3.97;;;;;;;15.21;100.00;100606.56;4982882;28;20755;-45
2022/09/13 00:30:26;;;;;;;5.47;4.30;;;;;;;15.26;100.00;100615.22;4983681;28;20218;-43
2022/09/13 00:32:52;;;;;;;6.80;4.03;;;;;;;15.19;100.00;100647.13;4978086;28;20272;-47
2022/09/13 00:35:17;;;;;;;4.53;4.18;;;;;;;15.13;100.00;100652.91;4977300;28;20214;-46
2022/09/13 00:37:43;;;;;;;5.60;4.60;;;;;;;15.07;100.00;100668.59;4976773;28;20206;-44
2022/09/13 00:40:09;;;;;;;5.45;4.50;;;;;;;15.04;100.00;100670.53;4983602;28;20208;-46
2022/09/13 00:42:34;;;;;;;4.57;4.28;;;;;;;15.09;100.00;100656.75;4979312;28;20613;-44
2022/09/13 00:45:05;;;;;;;5.35;4.90;;;;;;;15.01;100.00;100645.53;4978670;28;20205;-43
2022/09/13 00:47:50;;;;;;;4.93;4.53;;;;;;;14.95;100.00;100646.75;5044843;27;20570;-44
2022/09/13 00:50:21;;;;;;;5.13;4.63;;;;;;;15.01;100.00;100656.34;5038856;28;20729;-44
2022/09/13 00:52:54;;;;;;;6.28;4.65;;;;;;;14.95;100.00;100645.91;5039025;28;20588;-46
2022/09/13 00:55:29;;;;;;;5.38;4.75;;;;;;;14.91;100.00;100637.13;5017702;28;20427;-47
2022/09/13 00:58:01;;;;;;;6.28;5.15;;;;;;;14.94;100.00;100630.69;5030538;28;20686;-45
2022/09/13 01:00:27;;;;;;;5.22;4.82;;;;;;;14.92;100.00;100627.22;5033858;28;20190;-46
2022/09/13 01:03:00;;;;;;;5.68;5.15;;;;;;;14.87;100.00;100629.28;5031720;28;20279;-44
2022/09/13 01:05:31;;;;;;;8.65;5.13;;;;;;;14.97;100.00;100617.88;5034052;28;20180;-45
2022/09/13 01:07:59;;;;;;;5.68;5.18;;;;;;;14.89;100.00;100617.47;5031050;28;20220;-44
2022/09/13 01:10:26;;;;;;;6.43;5.40;;;;;;;14.94;100.00;100622.59;5039076;28;20184;-43
2022/09/13 01:13:03;;;;;;;6.20;5.57;;;;;;;14.88;100.00;100610.31;5032873;28;20203;-44
2022/09/13 01:15:29;;;;;;;5.85;5.25;;;;;;;14.84;100.00;100606.06;5031834;28;20184;-46
2022/09/13 01:17:55;;;;;;;5.93;5.43;;;;;;;14.89;100.00;100595.00;5035384;28;20591;-45
2022/09/13 01:20:36;;;;;;;7.15;5.78;;;;;;;14.89;100.00;100609.38;5034108;28;20217;-44
2022/09/13 01:23:19;;;;;;;5.97;5.43;;;;;;;14.80;100.00;100597.31;5027679;28;20180;-45
2022/09/13 01:26:17;;;;;;;7.03;5.55;;;;;;;14.93;100.00;100585.78;5029001;28;20192;-45
2022/09/13 01:29:17;;;;;;;6.97;5.90;;;;;;;14.86;100.00;100574.47;5037041;28;20698;-45
2022/09/13 01:32:14;;;;;;;7.00;6.05;;;;;;;14.79;100.00;100573.97;5028479;28;20192;-46
2022/09/13 01:35:25;;;;;;;8.52;5.95;;;;;;;14.82;100.00;100570.22;5016677;28;20591;-47
2022/09/13 01:38:03;;;;;;;6.32;5.72;;;;;;;14.86;100.00;100557.44;5033185;28;20338;-44
2022/09/13 01:40:37;;;;;;;6.47;5.88;;;;;;;14.75;100.00;100552.69;5036908;28;20796;-45
2022/09/13 01:43:18;;;;;;;8.88;6.00;;;;;;;14.77;100.00;100543.53;5036869;28;20180;-45
2022/09/13 01:46:11;;;;;;;6.10;5.50;;;;;;;14.76;100.00;100552.59;5031793;28;20264;-45
2022/09/13 01:48:53;;;;;;;6.40;5.80;;;;;;;14.76;100.00;100531.03;5035850;28;20349;-46
2022/09/13 01:51:21;;;;;;;7.65;6.45;;;;;;;14.75;100.00;100533.81;5035096;28;20179;-45
2022/09/13 01:54:12;;;;;;;7.63;6.65;;;;;;;14.69;100.00;100550.34;5032740;28;20188;-46
2022/09/13 01:56:57;;;;;;;7.75;7.15;;;;;;;14.69;100.00;100542.25;5033102;28;20187;-44
2022/09/13 01:59:41;;;;;;;9.68;8.23;;;;;;;14.75;100.00;100550.00;5021342;28;20759;-45
2022/09/13 02:02:25;;;;;;;9.70;7.97;;;;;;;14.76;100.00;100541.81;5017757;28;20285;-45
2022/09/13 02:05:01;;;;;;;8.52;7.72;;;;;;;14.69;100.00;100553.91;5014964;28;20652;-45
2022/09/13 02:07:34;;;;;;;9.18;8.35;;;;;;;14.71;100.00;100551.13;5021013;28;20254;-44
2022/09/13 02:10:06;;;;;;;9.32;8.50;;;;;;;14.71;100.00;100543.91;5025493;28;20548;-45
2022/09/13 02:12:35;;;;;;;9.73;8.82;;;;;;;14.77;100.00;100542.69;5023362;28;20193;-46
2022/09/13 02:15:21;;;;;;;10.88;9.40;;;;;;;14.71;100.00;100543.03;5019991;28;20271;-43
2022/09/13 02:18:13;;;;;;;10.25;9.30;;;;;;;14.67;100.00;100530.69;5020008;28;20580;-44
2022/09/13 02:20:43;;;;;;;14.20;9.73;;;;;;;14.61;100.00;100532.81;5012725;28;20216;-45
2022/09/13 02:23:22;;;;;;;10.32;9.23;;;;;;;14.56;100.00;100523.25;5018453;28;20195;-45
2022/09/13 02:25:49;;;;;;;11.25;10.13;;;;;;;14.56;100.00;100507.97;5015309;28;20209;-45
2022/09/13 02:28:22;;;;;;;11.43;10.32;;;;;;;14.55;100.00;100511.59;5016751;28;20208;-43
2022/09/13 02:30:52;;;;;;;12.00;10.73;;;;;;;14.57;100.00;100504.28;5019913;28;20189;-45
2022/09/13 02:33:27;;;;;;;12.05;10.75;;;;;;;14.63;100.00;100500.38;5023802;28;20342;-44
2022/09/13 02:36:01;;;;;;;14.25;11.52;;;;;;;14.56;100.00;100490.91;5020611;28;20274;-47
2022/09/13 02:38:36;;;;;;;12.73;11.35;;;;;;;14.58;100.00;100494.38;5014150;28;20220;-48
2022/09/13 02:41:46;;;;;;;13.70;11.80;;;;;;;14.63;100.00;100489.59;5018646;28;20694;-44
2022/09/13 02:44:18;;;;;;;13.07;10.45;;;;;;;14.58;100.00;100495.25;5018461;28;20180;-45
2022/09/13 02:46:49;;;;;;;14.02;12.48;;;;;;;14.48;100.00;100480.56;5019065;28;20227;-45
2022/09/13 02:49:30;;;;;;;14.35;12.25;;;;;;;14.48;100.00;100494.03;5015177;28;20291;-45
2022/09/13 02:52:08;;;;;;;12.73;11.43;;;;;;;14.51;100.00;100483.06;5029483;28;20293;-45
2022/09/13 02:54:50;;;;;;;12.68;11.40;;;;;;;14.53;100.00;100485.66;5022050;28;20190;-46
2022/09/13 02:57:37;;;;;;;12.43;11.23;;;;;;;14.54;100.00;100471.22;5019637;28;20207;-47
2022/09/13 03:00:03;;;;;;;13.07;11.77;;;;;;;14.51;100.00;100474.97;5021923;28;20662;-46
2022/09/13 03:02:32;;;;;;;12.55;11.25;;;;;;;14.50;100.00;100472.38;5022291;28;20192;-47
2022/09/13 03:04:59;;;;;;;12.90;11.23;;;;;;;14.55;100.00;100473.00;5017956;28;20548;-45
2022/09/13 03:07:25;;;;;;;14.90;12.10;;;;;;;14.46;100.00;100471.69;5024120;28;20629;-47
2022/09/13 03:09:56;;;;;;;14.73;12.45;;;;;;;14.49;100.00;100466.09;5022107;28;20215;-47
2022/09/13 03:13:08;;;;;;;12.93;11.48;;;;;;;14.49;100.00;100471.50;5018576;28;20192;-46
2022/09/13 03:15:44;;;;;;;15.50;12.27;;;;;;;14.39;100.00;100462.25;5017317;28;20235;-45
2022/09/13 03:18:09;;;;;;;13.82;12.38;;;;;;;14.45;100.00;100461.84;5026999;28;20691;-46
2022/09/13 03:20:51;;;;;;;13.88;12.48;;;;;;;14.39;100.00;100455.03;5016734;28;20246;-49
2022/09/13 03:23:28;;;;;;;15.10;13.50;;;;;;;14.40;100.00;100448.66;5015817;28;20223;-46
2022/09/13 03:26:18;;;;;;;15.73;13.00;;;;;;;14.42;100.00;100446.75;5015508;28;20215;-47
2022/09/13 03:29:04;;;;;;;14.32;12.80;;;;;;;14.48;100.00;100455.44;5024211;28;20215;-46
2022/09/13 03:31:33;;;;;;;15.00;13.50;;;;;;;14.41;100.00;100452.25;5018812;28;20601;-47
2022/09/13 03:34:09;;;;;;;16.63;13.40;;;;;;;14.43;100.00;100443.09;5020137;28;20758;-48
2022/09/13 03:37:03;;;;;;;15.10;13.55;;;;;;;14.52;100.00;100446.19;5013227;28;20176;-48
2022/09/13 03:39:54;;;;;;;16.30;14.05;;;;;;;14.52;100.00;100451.56;5018627;28;20205;-46
2022/09/13 03:42:47;;;;;;;17.33;15.52;;;;;;;14.50;100.00;100440.03;5003367;28;20243;-48
2022/09/13 03:45:16;;;;;;;18.50;15.55;;;;;;;14.59;100.00;100443.06;5018593;28;20224;-46
2022/09/13 03:47:45;;;;;;;20.23;15.68;;;;;;;14.55;100.00;100440.66;5015778;28;20220;-49
2022/09/13 03:50:17;;;;;;;21.05;16.50;;;;;;;14.51;100.00;100436.38;5015201;28;20192;-50
2022/09/13 03:52:44;;;;;;;18.70;16.30;;;;;;;14.53;100.00;100442.53;5012276;28;20204;-48
2022/09/13 03:55:09;;;;;;;19.13;16.45;;;;;;;14.57;100.00;100447.69;5014251;28;20275;-47
2022/09/13 03:57:35;;;;;;;21.40;17.80;;;;;;;14.56;100.00;100437.88;5017083;28;20195;-48
2022/09/13 04:00:01;;;;;;;22.23;16.77;;;;;;;14.61;100.00;100438.44;5017022;28;20226;-49
2022/09/13 04:02:37;;;;;;;21.35;17.88;;;;;;;14.66;100.00;100434.59;5020119;28;20280;-51
2022/09/13 04:05:02;;;;;;;25.13;20.15;;;;;;;14.63;100.00;100441.91;5015576;28;20336;-47
2022/09/13 04:07:28;;;;;;;24.23;20.92;;;;;;;14.63;100.00;100439.22;5014569;28;20270;-48
2022/09/13 04:09:54;;;;;;;24.08;20.48;;;;;;;14.66;100.00;100438.16;5015218;28;20272;-48
2022/09/13 04:12:20;;;;;;;26.95;21.45;;;;;;;14.63;100.00;100439.22;5017690;28;20199;-46
2022/09/13 04:14:46;;;;;;;28.90;22.02;;;;;;;14.66;100.00;100432.78;5020028;28;20184;-50
2022/09/13 04:17:12;;;;;;;29.23;21.77;;;;;;;14.62;100.00;100432.06;5016559;28;20240;-48
2022/09/13 04:19:37;;;;;;;27.50;22.55;;;;;;;14.63;100.00;100428.44;5018395;28;20187;-48
2022/09/13 04:22:03;;;;;;;30.65;22.75;;;;;;;14.63;100.00;100433.84;5015633;28;20188;-48
2022/09/13 04:24:30;;;;;;;30.52;22.50;;;;;;;14.67;100.00;100431.81;5019499;28;20844;-47
2022/09/13 04:26:56;;;;;;;28.20;22.20;;;;;;;14.74;100.00;100448.50;5015938;28;20354;-48
2022/09/13 04:29:23;;;;;;;25.63;22.25;;;;;;;14.69;100.00;100443.34;5018755;28;20197;-47
2022/09/13 04:31:50;;;;;;;31.42;23.67;;;;;;;14.72;100.00;100440.47;5015590;28;20185;-47
2022/09/13 04:34:17;;;;;;;32.75;24.33;;;;;;;14.70;100.00;100445.09;5015286;28;20183;-49
2022/09/13 04:36:44;;;;;;;29.00;23.50;;;;;;;14.73;100.00;100447.59;5019155;28;20675;-49
2022/09/13 04:39:10;;;;;;;32.30;23.63;;;;;;;14.72;100.00;100458.50;5018981;28;20187;-46
2022/09/13 04:41:35;;;;;;;29.25;22.85;;;;;;;14.76;100.00;100455.53;5018426;28;20185;-47
2022/09/13 04:44:01;;;;;;;33.03;24.00;;;;;;;14.77;100.00;100462.63;5018848;28;20214;-50
2022/09/13 04:46:28;;;;;;;33.22;24.02;;;;;;;14.79;100.00;100457.16;5012253;28;20589;-47
2022/09/13 04:48:54;;;;;;;33.10;23.42;;;;;;;14.81;100.00;100461.47;5017715;28;20210;-48
2022/09/13 04:51:20;;;;;;;30.92;23.15;;;;;;;14.86;100.00;100466.59;5016991;28;20259;-49
2022/09/13 04:53:52;;;;;;;29.75;22.23;;;;;;;14.88;100.00;100475.47;5015661;28;20196;-48
2022/09/13 04:56:18;;;;;;;28.77;22.88;;;;;;;14.89;100.00;100471.81;5016995;28;20176;-50
2022/09/13 04:58:44;;;;;;;31.25;23.33;;;;;;;14.89;100.00;100479.00;5018389;28;20204;-48
2022/09/13 05:01:10;;;;;;;30.08;22.65;;;;;;;14.89;100.00;100479.91;5012283;28;20711;-49
2022/09/13 05:03:36;;;;;;;31.60;21.40;;;;;;;14.85;100.00;100481.06;5013152;28;20191;-52
2022/09/13 05:06:07;;;;;;;33.65;21.50;;;;;;;14.89;100.00;100482.59;5014845;28;20683;-48
2022/09/13 05:08:34;;;;;;;31.48;20.48;;;;;;;14.84;100.00;100480.16;5018230;28;20216;-48
2022/09/13 05:11:00;;;;;;;26.17;18.15;;;;;;;14.94;100.00;100480.47;5017022;28;20211;-52
2022/09/13 05:13:26;;;;;;;26.02;18.48;;;;;;;14.94;100.00;100485.00;5016963;28;20181;-46
2022/09/13 05:16:18;;;;;;;24.33;17.30;;;;;;;15.00;100.00;100480.09;5020405;28;20763;-47
2022/09/13 05:18:43;;;;;;;27.65;17.35;;;;;;;14.90;100.00;100487.03;5007050;28;20228;-48
2022/09/13 05:21:08;;;;;;;26.17;16.98;;;;;;;14.96;100.00;100483.09;5011169;28;20194;-47
2022/09/13 05:23:34;;;;;;;26.23;18.50;;;;;;;14.96;100.00;100475.00;5012935;28;20544;-51
2022/09/13 05:26:02;;;;;;;25.90;16.55;;;;;;;15.02;100.00;100483.56;5016509;28;20546;-46
2022/09/13 05:28:29;;;;;;;25.70;16.27;;;;;;;15.01;100.00;100479.13;5016323;28;20207;-47
2022/09/13 05:30:55;;;;;;;24.65;16.45;;;;;;;14.96;100.00;100475.00;5016530;28;20204;-47
2022/09/13 05:33:21;;;;;;;19.77;14.70;;;;;;;15.00;100.00;100490.03;5018605;28;20218;-47
2022/09/13 05:35:46;;;;;;;28.50;17.30;;;;;;;14.99;100.00;100496.38;5019441;28;20536;-51
2022/09/13 05:38:12;;;;;;;26.58;16.52;;;;;;;14.93;100.00;100484.13;5016804;28;20240;-49
2022/09/13 05:40:37;;;;;;;26.92;15.85;;;;;;;15.00;100.00;100496.28;5016968;28;20263;-47
2022/09/13 05:43:03;;;;;;;27.23;16.98;;;;;;;14.98;100.00;100505.44;5020024;28;20270;-48
2022/09/13 05:45:28;;;;;;;28.77;16.85;;;;;;;14.99;100.00;100504.47;5020290;28;20594;-48
2022/09/13 05:47:53;;;;;;;31.98;17.92;;;;;;;15.03;100.00;100500.63;5018593;28;20224;-47
2022/09/13 05:50:19;;;;;;;26.92;16.63;;;;;;;15.03;100.00;100488.00;5018811;28;20188;-54
2022/09/13 05:52:53;;;;;;;27.63;15.60;;;;;;;15.08;100.00;100485.00;5019673;28;20235;-49
2022/09/13 05:55:20;;;;;;;25.70;15.35;;;;;;;15.02;100.00;100490.78;5022006;28;20274;-48
2022/09/13 05:57:47;;;;;;;28.67;14.30;;;;;;;15.04;100.00;100494.25;5019901;28;20251;-49
2022/09/13 06:00:13;;;;;;;25.17;13.57;;;;;;;15.06;100.00;100489.63;5018324;28;20611;-48
2022/09/13 06:02:40;;;;;;;21.75;12.85;;;;;;;15.10;100.00;100480.38;5017124;28;20191;-52
2022/09/13 06:05:06;;;;;;;22.40;11.18;;;;;;;15.11;100.00;100486.63;5018368;28;20598;-46
2022/09/13 06:07:32;;;;;;;18.02;9.98;;;;;;;15.12;100.00;100501.88;5020307;28;20526;-47
2022/09/13 06:09:57;;;;;;;16.45;9.48;;;;;;;15.13;100.00;100500.91;5020921;28;20183;-47
2022/09/13 06:12:23;;;;;;;15.73;7.38;;;;;;;15.04;100.00;100505.03;5019166;28;20196;-48
2022/09/13 06:14:49;;;;;;;13.77;6.68;;;;;;;14.94;100.00;100512.84;5018429;28;20554;-46
2022/09/13 06:17:14;;;;;;;14.65;6.00;;;;;;;14.98;100.00;100508.16;5024699;28;20287;-47
2022/09/13 06:19:39;;;;;;;18.67;6.70;;;;;;;14.93;100.00;100511.09;5019113;28;20202;-46
2022/09/13 06:22:05;;;;;;;13.27;4.97;;;;;;;14.90;100.00;100510.44;5019378;28;20242;-44
2022/09/13 06:24:30;;;;;;;15.32;5.68;;;;;;;14.96;100.00;100512.75;5021337;28;20298;-43
2022/09/13 06:26:56;;;;;;;9.43;4.47;;;;;;;15.15;100.00;100520.56;5017896;28;20264;-48
2022/09/13 06:29:23;;;;;;;9.95;3.85;;;;;;;15.63;100.00;100521.13;5017478;28;20189;-44
2022/09/13 06:31:48;;;;;;;8.73;3.20;;;;;;;15.84;100.00;100519.78;5027343;28;20204;-46
2022/09/13 06:34:16;;;;;;;10.93;2.90;;;;;;;15.76;100.00;100519.41;5025724;28;20920;-48
2022/09/13 06:36:42;;;;;;;8.85;2.17;;;;;;;15.94;100.00;100520.06;5018828;28;20268;-45
2022/09/13 06:39:08;;;;;;;10.00;2.13;;;;;;;16.21;100.00;100521.88;5018123;28;20661;-47
2022/09/13 06:41:33;;;;;;;10.15;1.83;;;;;;;16.43;100.00;100518.59;5016061;28;20180;-47
2022/09/13 06:44:00;;;;;;;6.85;2.08;;;;;;;16.82;100.00;100509.63;5024941;28;20184;-48
2022/09/13 06:46:28;;;;;;;7.32;1.70;;;;;;;16.91;100.00;100518.94;5015625;28;20220;-47
2022/09/13 06:48:54;;;;;;;8.75;1.90;;;;;;;16.89;100.00;100508.22;5014593;28;20552;-46
2022/09/13 06:51:22;;;;;;;11.23;4.32;;;;;;;17.00;100.00;100514.72;5027235;28;20283;-46
2022/09/13 06:53:55;;;;;;;8.02;3.25;;;;;;;16.81;99.15;100521.41;5022375;28;20655;-45
2022/09/13 06:56:25;;;;;;;10.38;2.53;;;;;;;17.24;98.14;100509.41;5025707;28;20279;-48
2022/09/13 06:58:55;;;;;;;9.18;1.83;;;;;;;17.19;96.42;100517.88;5017344;28;20215;-50
2022/09/13 07:01:26;;;;;;;10.45;2.42;;;;;;;16.83;96.14;100508.66;5011688;28;20288;-48
2022/09/13 07:03:53;;;;;;;6.50;1.83;;;;;;;16.80;96.85;100522.41;5018653;28;20215;-48
2022/09/13 07:06:25;;;;;;;8.90;2.10;;;;;;;16.44;97.03;100517.63;5017781;28;20214;-47
2022/09/13 07:08:52;;;;;;;9.15;1.80;;;;;;;16.21;99.16;100516.47;5019689;28;20302;-47
2022/09/13 07:11:20;;;;;;;11.70;2.30;;;;;;;16.24;99.75;100519.84;5016947;28;20204;-48
2022/09/13 07:13:53;;;;;;;12.25;1.80;;;;;;;16.43;100.00;100513.19;5015753;28;20604;-50
2022/09/13 07:16:20;;;;;;;10.73;1.85;;;;;;;16.48;100.00;100514.59;5014282;28;20184;-46
2022/09/13 07:18:52;;;;;;;9.68;1.75;;;;;;;16.80;100.00;100522.41;5019417;28;20217;-46
2022/09/13 07:21:18;;;;;;;6.20;1.73;;;;;;;16.90;98.57;100519.91;5020195;28;20195;-48
2022/09/13 07:23:43;;;;;;;9.50;1.83;;;;;;;17.15;97.19;100521.78;5019961;28;20674;-48
2022/09/13 07:26:09;;;;;;;8.35;1.73;;;;;;;17.38;95.64;100519.25;5017002;28;20220;-51
2022/09/13 07:28:45;;;;;;;8.23;1.30;;;;;;;17.49;93.87;100519.34;5016817;28;20213;-45
2022/09/13 07:31:17;;;;;;;6.80;1.40;;;;;;;17.54;92.81;100522.59;5020667;28;20542;-51
2022/09/13 07:33:44;;;;;;;7.80;1.60;;;;;;;17.81;91.13;100527.00;5024166;28;20184;-48
2022/09/13 07:36:11;;;;;;;6.82;1.75;;;;;;;17.91;89.80;100528.09;5023315;28;20180;-51
2022/09/13 07:38:39;;;;;;;10.13;2.15;;;;;;;18.08;88.66;100527.69;5018521;28;20207;-49
2022/09/13 07:41:07;;;;;;;7.38;1.55;;;;;;;18.14;88.26;100539.06;5018555;28;20188;-48
2022/09/13 07:43:34;;;;;;;6.82;1.40;;;;;;;18.06;87.43;100536.91;5014430;28;20234;-48
2022/09/13 07:46:02;;;;;;;10.13;1.67;;;;;;;17.73;87.07;100535.66;5016791;28;20591;-51
2022/09/13 07:48:29;;;;;;;12.93;1.80;;;;;;;18.24;87.07;100538.25;5020660;28;20279;-49
2022/09/13 07:51:01;;;;;;;10.18;2.05;;;;;;;18.39;85.04;100541.66;5022907;28;20180;-47
2022/09/13 07:53:26;;;;;;;8.05;2.13;;;;;;;18.46;84.21;100539.34;5007716;28;20193;-49
2022/09/13 07:55:52;;;;;;;10.20;1.75;;;;;;;18.32;84.77;100543.09;5020756;28;20557;-51
2022/09/13 07:58:18;;;;;;;11.20;1.92;;;;;;;18.50;83.72;100538.13;5015207;28;20219;-51
2022/09/13 08:00:43;;;;;;;8.80;1.42;;;;;;;18.84;81.99;100549.13;5021474;28;20684;-47
2022/09/13 08:03:10;;;;;;;11.93;1.88;;;;;;;18.65;81.98;100544.22;5013202;28;20558;-48
2022/09/13 08:05:40;;;;;;;9.18;1.42;;;;;;;19.13;80.31;100538.69;5015690;28;20738;-48
2022/09/13 08:08:06;;;;;;;8.88;1.60;;;;;;;18.63;80.32;100547.06;5017627;28;20230;-47
2022/09/13 08:10:32;;;;;;;10.65;1.92;;;;;;;18.50;78.43;100549.84;5021417;28;20709;-45
2022/09/13 08:12:58;;;;;;;10.77;1.50;;;;;;;18.24;78.33;100543.69;5012021;28;20262;-48
2022/09/13 08:15:23;;;;;;;7.07;1.40;;;;;;;18.38;77.12;100548.06;5012088;28;20192;-47
2022/09/13 08:17:49;;;;;;;8.30;1.70;;;;;;;17.90;76.78;100551.59;5013815;28;20575;-49
2022/09/13 08:20:14;;;;;;;7.03;1.42;;;;;;;18.47;77.60;100552.78;5016628;28;20183;-48
2022/09/13 08:22:40;;;;;;;6.07;1.27;;;;;;;18.12;75.91;100555.44;5015310;28;20726;-45
2022/09/13 08:25:05;;;;;;;8.48;1.30;;;;;;;17.88;75.52;100552.69;5014401;28;20188;-49
2022/09/13 08:27:31;;;;;;;10.15;1.67;;;;;;;18.14;75.09;100555.31;5019928;28;20228;-50
2022/09/13 08:29:56;;;;;;;10.13;1.60;;;;;;;18.06;74.57;100556.78;5015355;28;20188;-48
2022/09/13 08:32:22;;;;;;;8.85;1.35;;;;;;;17.82;73.50;100558.56;5017854;28;20184;-49
2022/09/13 08:34:47;;;;;;;6.13;1.70;;;;;;;18.32;72.95;100554.81;5015100;28;20619;-51
2022/09/13 08:37:13;;;;;;;8.23;1.17;;;;;;;18.64;72.70;100543.34;5014735;28;20188;-47
2022/09/13 08:39:39;;;;;;;5.03;1.50;;;;;;;18.82;73.18;100548.38;5006591;28;20204;-47
2022/09/13 08:42:29;;;;;;;4.97;1.15;;;;;;;18.46;72.57;100551.06;5013476;28;20228;-47
2022/09/13 08:44:58;;;;;;;14.82;8.18;;;;;;;18.34;72.08;100551.97;5008534;28;20203;-46
2022/09/13 08:47:36;;;;;;;30.75;20.20;;;;;;;18.21;71.85;100562.00;5020702;28;20293;-50
2022/09/13 08:50:20;;;;;;;7.10;1.75;;;;;;;18.05;71.35;100554.16;4999981;28;20196;-50
2022/09/13 08:53:10;;;;;;;8.20;1.73;;;;;;;18.13;71.17;100551.75;5016758;28;20188;-48
2022/09/13 08:56:21;;;;;;;12.70;5.65;;;;;;;18.39;71.05;100555.22;5014554;28;20753;-52
2022/09/13 08:59:15;;;;;;;9.90;1.95;;;;;;;18.63;70.91;100551.59;5004313;28;20256;-46
2022/09/13 09:02:07;;;;;;;14.75;4.22;;;;;;;18.51;71.86;100546.13;5021915;28;20773;-47
2022/09/13 09:05:02;;;;;;;8.27;2.10;;;;;;;18.75;70.56;100550.69;5020257;28;20195;-46
2022/09/13 09:07:39;;;;;;;9.13;1.75;;;;;;;18.88;70.63;100562.34;5018653;28;20219;-48
2022/09/13 09:10:13;;;;;;;5.57;1.33;;;;;;;18.61;70.42;100550.88;5021739;28;20215;-50
2022/09/13 09:12:45;;;;;;;6.88;1.60;;;;;;;18.58;69.69;100548.41;5020588;28;20195;-51
2022/09/13 09:15:28;;;;;;;9.13;1.42;;;;;;;18.90;69.61;100545.94;5024388;28;20194;-49
2022/09/13 09:18:09;;;;;;;7.70;1.50;;;;;;;19.21;68.02;100547.13;5021584;28;20669;-50
2022/09/13 09:20:43;;;;;;;5.10;1.52;;;;;;;19.14;67.94;100546.75;5020629;28;20280;-49
2022/09/13 09:23:36;;;;;;;4.93;1.30;;;;;;;19.79;67.39;100546.16;5019458;28;20212;-46
2022/09/13 09:26:15;;;;;;;8.65;1.67;;;;;;;19.46;67.26;100554.19;5020665;28;20635;-52
2022/09/13 09:28:43;;;;;;;9.57;2.10;;;;;;;19.38;67.73;100542.22;5008757;28;20307;-48
2022/09/13 09:31:27;;;;;;;5.40;1.60;;;;;;;19.87;67.27;100551.84;5013195;28;20189;-49
2022/09/13 09:34:06;;;;;;;8.85;2.15;;;;;;;20.32;67.31;100552.63;5013658;28;20188;-47
2022/09/13 09:36:54;;;;;;;5.53;1.73;;;;;;;19.52;65.85;100542.81;5014035;28;20215;-50
2022/09/13 09:39:19;;;;;;;7.97;1.63;;;;;;;18.76;67.23;100552.44;5009376;28;20180;-46
2022/09/13 09:41:45;;;;;;;7.18;1.60;;;;;;;18.18;67.57;100549.56;5025338;28;20648;-46
2022/09/13 09:44:21;;;;;;;9.38;1.58;;;;;;;18.51;66.75;100548.00;5013619;28;20268;-47
2022/09/13 09:46:55;;;;;;;7.40;1.10;;;;;;;18.87;65.48;100546.16;5021904;28;20574;-44
2022/09/13 09:52:42;;;;;;;4.38;1.20;;;;;;;19.08;63.84;100551.78;5017102;28;20188;-50
2022/09/13 09:55:25;;;;;;;3.15;1.08;;;;;;;18.97;62.98;100538.19;5015522;28;20184;-47
2022/09/13 09:57:59;;;;;;;5.15;1.05;;;;;;;19.39;64.48;100528.50;5012363;28;20733;-50
2022/09/13 10:00:29;;;;;;;7.22;1.30;;;;;;;18.54;64.25;100536.91;5021068;28;20181;-47
2022/09/13 10:03:01;;;;;;;8.75;1.52;;;;;;;18.25;65.72;100536.41;5019387;28;20893;-44
2022/09/13 10:05:29;;;;;;;8.23;1.52;;;;;;;18.88;64.96;100537.91;5018728;28;20239;-49
2022/09/13 10:08:04;;;;;;;7.65;1.38;;;;;;;19.35;62.81;100536.03;5018619;28;20742;-48
2022/09/13 10:10:35;;;;;;;10.90;1.38;;;;;;;19.27;62.54;100530.34;5016099;28;20179;-50
2022/09/13 10:13:04;;;;;;;10.20;1.30;;;;;;;19.58;62.45;100521.59;5013081;28;20350;-48
2022/09/13 10:15:33;;;;;;;6.72;1.58;;;;;;;20.19;63.43;100532.03;5020351;28;20200;-50
2022/09/13 10:18:13;;;;;;;7.05;1.55;;;;;;;19.79;62.80;100532.56;5019228;28;20274;-48
2022/09/13 10:20:38;;;;;;;3.72;1.40;;;;;;;19.87;61.97;100521.94;5020354;28;20200;-50
2022/09/13 10:23:15;;;;;;;7.20;1.13;;;;;;;19.94;60.85;100513.19;5020443;28;20193;-52
2022/09/13 10:25:44;;;;;;;5.80;1.42;;;;;;;20.23;60.81;100518.03;5018652;28;20198;-47
2022/09/13 10:28:15;;;;;;;5.35;0.98;;;;;;;20.21;61.48;100503.69;5024738;28;20211;-47
2022/09/13 10:30:52;;;;;;;8.75;1.33;;;;;;;20.38;62.25;100510.44;5021007;28;20663;-47
2022/09/13 10:33:26;;;;;;;4.60;1.25;;;;;;;20.52;61.36;100517.44;5020265;28;20674;-46
2022/09/13 10:35:56;;;;;;;5.97;1.10;;;;;;;20.66;61.70;100511.72;5018756;28;20214;-46
2022/09/13 10:38:31;;;;;;;3.97;1.10;;;;;;;20.57;61.55;100515.19;5016960;28;20584;-50
2022/09/13 10:40:59;;;;;;;4.45;1.23;;;;;;;20.50;60.71;100512.09;5015453;28;20639;-47
2022/09/13 10:43:28;;;;;;;5.80;1.33;;;;;;;20.50;61.38;100501.22;5008931;28;20212;-49
2022/09/13 10:45:55;;;;;;;5.65;1.08;;;;;;;20.11;61.35;100498.16;5022261;28;20208;-47
2022/09/13 10:48:21;;;;;;;5.85;1.40;;;;;;;20.05;60.44;100515.00;5025839;28;20221;-51
2022/09/13 10:51:26;;;;;;;9.75;1.50;;;;;;;20.42;60.72;100516.47;5016308;28;20624;-50
2022/09/13 10:54:10;;;;;;;9.38;1.67;;;;;;;20.45;59.71;100508.94;5013238;28;20212;-46
2022/09/13 10:56:36;;;;;;;5.65;1.52;;;;;;;19.83;61.73;100515.91;5019114;28;20203;-46
2022/09/13 10:59:24;;;;;;;9.57;1.80;;;;;;;19.84;62.91;100511.34;5013000;28;20215;-48
2022/09/13 11:01:49;;;;;;;10.77;1.88;;;;;;;19.84;61.06;100520.34;5026368;28;20196;-50
2022/09/13 11:04:39;;;;;;;7.25;1.45;;;;;;;20.18;60.27;100512.09;5015406;28;20230;-46
2022/09/13 11:07:13;;;;;;;8.05;1.60;;;;;;;20.60;60.02;100505.91;5017432;28;20299;-47
2022/09/13 11:09:56;;;;;;;8.13;1.88;;;;;;;20.48;60.27;100514.09;5018843;28;20188;-46
2022/09/13 11:12:40;;;;;;;9.32;1.50;;;;;;;20.95;61.82;100505.59;5020808;28;20196;-44
2022/09/13 11:15:32;;;;;;;7.97;1.40;;;;;;;21.23;58.68;100486.81;5017371;28;20234;-46
2022/09/13 11:18:00;;;;;;;5.90;1.05;;;;;;;20.93;57.44;100496.72;5019511;28;20208;-47
2022/09/13 11:20:40;;;;;;;8.40;1.45;;;;;;;19.93;59.04;100506.00;5019869;28;20218;-46
2022/09/13 11:23:16;;;;;;;6.90;1.20;;;;;;;19.57;59.87;100515.28;5019013;28;20275;-48
2022/09/13 11:25:56;;;;;;;11.98;2.15;;;;;;;19.72;60.50;100503.19;5019304;28;20673;-47
2022/09/13 11:28:59;;;;;;;4.55;1.40;;;;;;;19.46;60.80;100504.41;5018250;28;20204;-45
2022/09/13 11:31:39;;;;;;;5.55;1.10;;;;;;;19.05;61.82;100505.88;5017136;28;20187;-46
2022/09/13 11:34:48;;;;;;;11.80;1.45;;;;;;;18.93;62.36;100499.53;5018420;28;20219;-48
2022/09/13 11:37:25;;;;;;;7.15;1.52;;;;;;;18.90;63.08;100511.53;5018883;28;20209;-47
2022/09/13 11:40:09;;;;;;;7.40;1.58;;;;;;;18.82;64.12;100513.09;5018969;28;20583;-48
2022/09/13 11:42:59;;;;;;;7.53;1.55;;;;;;;18.66;64.61;100508.84;5017533;28;20267;-51